Time;durP1;ratioP1;P1;durP2;ratioP2;P2;SDS_P1;SDS_P2;PMS_P1;PMS_P2;Temp;Humidity;BMP_temperature;BMP_pressure;BME280_temperature;BME280_humidity;BME280_pressure;Samples;Min_cycle;Max_cycle;Signal;HPM_P1;HPM_P2
2021/09/16 00:01:22;;;;;;;18.00;9.00;;;16.10;99.90;;;;;;5012182;28;20435;-59
2021/09/16 00:03:51;;;;;;;20.20;9.73;;;16.00;99.90;;;;;;5010699;28;20801;-59
2021/09/16 00:06:17;;;;;;;24.17;9.73;;;16.00;99.90;;;;;;5010067;28;20439;-59
2021/09/16 00:08:49;;;;;;;20.13;9.50;;;16.00;99.90;;;;;;5011339;28;20488;-60
2021/09/16 00:11:17;;;;;;;45.27;9.47;;;16.00;99.90;;;;;;4996270;28;20596;-59
2021/09/16 00:13:49;;;;;;;38.23;10.10;;;16.00;99.90;;;;;;5013171;28;20949;-60
2021/09/16 00:16:17;;;;;;;43.87;10.20;;;15.90;99.90;;;;;;5012894;28;20446;-60
2021/09/16 00:18:43;;;;;;;17.23;10.40;;;15.90;99.90;;;;;;5009640;28;20439;-60
2021/09/16 00:21:20;;;;;;;50.30;11.37;;;15.90;99.90;;;;;;5009661;28;20431;-59
2021/09/16 00:23:49;;;;;;;36.10;11.10;;;15.90;99.90;;;;;;4993698;28;20207;-59
2021/09/16 00:26:19;;;;;;;54.33;11.90;;;15.80;99.90;;;;;;5012480;28;20562;-59
2021/09/16 00:28:57;;;;;;;54.60;10.80;;;15.90;99.90;;;;;;5005376;28;20439;-59
2021/09/16 00:31:40;;;;;;;58.63;11.80;;;15.90;99.90;;;;;;5010815;28;20434;-60
2021/09/16 00:34:06;;;;;;;93.57;12.30;;;15.80;99.90;;;;;;5009854;28;20463;-59
2021/09/16 00:36:38;;;;;;;31.47;11.67;;;15.80;99.90;;;;;;5007059;28;20801;-59
2021/09/16 00:39:10;;;;;;;32.83;12.67;;;15.80;99.90;;;;;;5006991;28;20754;-59
2021/09/16 00:41:41;;;;;;;58.00;13.00;;;15.80;99.90;;;;;;5008155;28;20435;-59
2021/09/16 00:44:07;;;;;;;60.70;13.20;;;15.80;99.90;;;;;;5010395;28;20443;-60
2021/09/16 00:46:49;;;;;;;70.53;13.33;;;15.80;99.90;;;;;;5009549;28;20572;-58
2021/09/16 00:49:20;;;;;;;61.07;11.77;;;15.80;99.90;;;;;;5010575;28;20191;-59
2021/09/16 00:51:56;;;;;;;38.53;12.13;;;15.70;99.90;;;;;;5010523;28;20475;-59
2021/09/16 00:54:32;;;;;;;50.70;12.23;;;15.70;99.90;;;;;;5010622;28;20553;-58
2021/09/16 00:57:03;;;;;;;115.77;14.20;;;15.70;99.90;;;;;;5000427;28;20434;-59
2021/09/16 00:59:49;;;;;;;98.73;13.23;;;15.60;99.90;;;;;;5009351;28;20447;-59
2021/09/16 01:02:41;;;;;;;67.97;13.23;;;15.60;99.90;;;;;;4999683;28;20451;-59
2021/09/16 01:05:38;;;;;;;126.17;13.30;;;15.60;99.90;;;;;;5009770;28;20808;-60
2021/09/16 01:08:08;;;;;;;70.03;12.33;;;15.60;99.90;;;;;;5003751;28;20431;-59
2021/09/16 01:10:58;;;;;;;89.20;13.37;;;15.60;99.90;;;;;;5009587;28;20432;-58
2021/09/16 01:13:25;;;;;;;79.90;12.50;;;15.60;99.90;;;;;;5007395;28;20455;-60
2021/09/16 01:15:54;;;;;;;38.17;11.90;;;15.60;99.90;;;;;;5009150;28;20493;-60
2021/09/16 01:18:23;;;;;;;63.60;11.90;;;15.60;99.90;;;;;;4992133;28;20435;-60
2021/09/16 01:20:57;;;;;;;54.27;10.70;;;15.60;99.90;;;;;;5009175;28;20432;-59
2021/09/16 01:23:31;;;;;;;47.33;11.90;;;15.60;99.90;;;;;;5004325;28;20546;-60
2021/09/16 01:25:56;;;;;;;81.67;12.30;;;15.60;99.90;;;;;;5001851;28;20431;-59
2021/09/16 01:28:28;;;;;;;34.43;11.63;;;15.60;99.90;;;;;;5009899;28;20442;-59
2021/09/16 01:30:56;;;;;;;38.47;10.67;;;15.60;99.90;;;;;;5000531;28;20582;-59
2021/09/16 01:33:24;;;;;;;27.23;11.20;;;15.60;99.90;;;;;;5008059;28;20487;-59
2021/09/16 01:35:55;;;;;;;75.27;12.70;;;15.50;99.90;;;;;;4988453;28;20431;-59
2021/09/16 01:38:23;;;;;;;50.07;11.70;;;15.60;99.90;;;;;;5008613;28;20467;-59
2021/09/16 01:41:15;;;;;;;23.00;11.00;;;15.60;99.90;;;;;;5009351;28;20994;-59
2021/09/16 01:43:44;;;;;;;24.20;10.90;;;15.50;99.90;;;;;;5010485;28;20948;-58
2021/09/16 01:46:09;;;;;;;18.30;10.57;;;15.50;99.90;;;;;;5008640;28;21133;-59
2021/09/16 01:48:36;;;;;;;20.20;11.40;;;15.60;99.90;;;;;;5009853;28;20455;-59
2021/09/16 01:51:04;;;;;;;38.53;11.83;;;15.60;99.90;;;;;;4990674;28;20653;-59
2021/09/16 01:53:37;;;;;;;30.20;11.40;;;15.60;99.90;;;;;;5010260;28;20529;-59
2021/09/16 01:56:06;;;;;;;16.40;10.43;;;15.60;99.90;;;;;;4999296;28;20431;-60
2021/09/16 01:58:43;;;;;;;18.67;10.13;;;15.60;99.90;;;;;;4994392;28;20522;-59
2021/09/16 02:04:16;;;;;;;14.50;8.83;;;15.60;99.90;;;;;;4997838;28;20522;-59
2021/09/16 02:06:56;;;;;;;19.83;8.43;;;15.60;99.90;;;;;;5008611;28;21010;-58
2021/09/16 02:09:22;;;;;;;20.00;9.90;;;15.60;99.90;;;;;;5008523;28;20415;-61
2021/09/16 02:12:13;;;;;;;18.33;9.70;;;15.60;99.90;;;;;;5008852;28;20442;-60
2021/09/16 02:14:47;;;;;;;16.90;9.00;;;15.60;99.90;;;;;;4986297;28;20633;-58
2021/09/16 02:17:23;;;;;;;15.50;8.80;;;15.60;99.90;;;;;;5006832;28;20998;-59
2021/09/16 02:19:54;;;;;;;16.80;9.03;;;15.60;99.90;;;;;;5008485;28;20477;-59
2021/09/16 02:22:28;;;;;;;22.97;9.13;;;15.60;99.90;;;;;;5002610;28;20459;-60
2021/09/16 02:24:56;;;;;;;17.80;9.63;;;15.60;99.90;;;;;;5010073;28;20551;-59
2021/09/16 02:27:27;;;;;;;18.00;10.30;;;15.60;99.90;;;;;;5004721;28;20623;-60
2021/09/16 02:29:56;;;;;;;15.23;8.73;;;15.60;99.90;;;;;;4985972;28;20432;-60
2021/09/16 02:32:24;;;;;;;15.67;9.60;;;15.60;99.90;;;;;;5005267;28;20558;-58
2021/09/16 02:34:52;;;;;;;16.53;9.77;;;15.60;99.90;;;;;;5000835;28;20977;-57
2021/09/16 02:37:27;;;;;;;14.33;10.13;;;15.60;99.90;;;;;;5009068;28;20458;-60
2021/09/16 02:39:56;;;;;;;20.30;10.30;;;15.60;99.90;;;;;;5001020;28;20457;-59
2021/09/16 02:42:30;;;;;;;14.93;9.97;;;15.60;99.90;;;;;;5002864;28;20443;-58
2021/09/16 02:44:56;;;;;;;20.23;10.20;;;15.60;99.90;;;;;;5012546;28;20523;-59
2021/09/16 02:47:30;;;;;;;15.17;9.50;;;15.60;99.90;;;;;;5001244;28;21094;-59
2021/09/16 02:49:59;;;;;;;15.77;10.60;;;15.60;99.90;;;;;;4999612;28;20195;-59
2021/09/16 02:52:24;;;;;;;14.97;10.03;;;15.60;99.90;;;;;;4999121;28;20443;-59
2021/09/16 02:55:01;;;;;;;12.77;8.90;;;15.60;99.90;;;;;;4999069;28;20467;-59
2021/09/16 02:57:39;;;;;;;17.60;9.60;;;15.60;99.90;;;;;;4998761;28;20270;-60
2021/09/16 03:00:19;;;;;;;11.10;7.80;;;15.60;99.90;;;;;;5002072;28;20412;-61
2021/09/16 03:02:48;;;;;;;10.87;8.63;;;15.60;99.90;;;;;;5001568;28;20444;-61
2021/09/16 03:05:33;;;;;;;11.00;7.57;;;15.60;99.90;;;;;;4999461;28;20423;-60
2021/09/16 03:08:02;;;;;;;9.70;6.60;;;15.60;99.90;;;;;;4998481;28;20559;-59
2021/09/16 03:10:30;;;;;;;9.87;7.43;;;15.60;99.90;;;;;;4999264;28;20947;-59
2021/09/16 03:13:09;;;;;;;9.50;6.87;;;15.60;99.90;;;;;;4990813;28;20461;-59
2021/09/16 03:15:46;;;;;;;15.40;9.20;;;15.60;99.90;;;;;;4998419;28;20431;-59
2021/09/16 03:18:23;;;;;;;24.50;9.57;;;15.60;99.90;;;;;;4997170;28;20506;-59
2021/09/16 03:20:52;;;;;;;24.97;10.53;;;15.60;99.90;;;;;;5000365;28;21010;-59
2021/09/16 03:23:28;;;;;;;15.80;9.90;;;15.50;99.90;;;;;;4999549;28;20459;-59
2021/09/16 03:26:02;;;;;;;20.93;10.60;;;15.50;99.90;;;;;;5000506;28;20780;-59
2021/09/16 03:28:38;;;;;;;14.13;9.00;;;15.50;99.90;;;;;;4999109;28;20411;-59
2021/09/16 03:31:17;;;;;;;13.37;8.83;;;15.50;99.90;;;;;;5000281;28;20426;-62
2021/09/16 03:33:46;;;;;;;13.37;9.00;;;15.50;99.90;;;;;;5002315;28;20619;-59
2021/09/16 03:36:17;;;;;;;14.60;8.30;;;15.50;99.90;;;;;;5002234;28;20901;-59
2021/09/16 03:38:42;;;;;;;15.00;8.67;;;15.50;99.90;;;;;;5000569;28;20444;-59
2021/09/16 03:41:08;;;;;;;15.03;8.97;;;15.50;99.90;;;;;;5001030;28;20823;-59
2021/09/16 03:43:33;;;;;;;16.43;9.23;;;15.50;99.90;;;;;;5007870;28;20210;-58
2021/09/16 03:45:59;;;;;;;13.83;9.53;;;15.60;99.90;;;;;;4987466;28;20184;-59
2021/09/16 03:48:25;;;;;;;21.57;9.90;;;15.60;99.90;;;;;;5007314;28;20184;-59
2021/09/16 03:50:50;;;;;;;15.03;9.23;;;15.50;99.90;;;;;;5002131;28;20180;-60
2021/09/16 03:53:16;;;;;;;15.97;9.63;;;15.60;99.90;;;;;;5003247;28;20209;-59
2021/09/16 03:55:42;;;;;;;14.93;9.10;;;15.60;99.90;;;;;;4983323;28;20546;-60
2021/09/16 03:58:08;;;;;;;16.97;9.30;;;15.60;99.90;;;;;;4987002;28;20545;-62
2021/09/16 04:00:33;;;;;;;13.73;8.67;;;15.60;99.90;;;;;;5002997;28;21699;-58
2021/09/16 04:03:10;;;;;;;13.80;8.90;;;15.50;99.90;;;;;;4997818;28;20235;-60
2021/09/16 04:05:36;;;;;;;17.53;8.97;;;15.50;99.90;;;;;;5003761;28;20204;-59
2021/09/16 04:08:03;;;;;;;18.27;9.53;;;15.60;99.90;;;;;;4999197;28;20436;-60
2021/09/16 04:10:28;;;;;;;14.97;8.60;;;15.50;99.90;;;;;;4997542;28;20490;-59
2021/09/16 04:12:54;;;;;;;17.03;9.93;;;15.60;99.90;;;;;;5002508;28;20479;-59
2021/09/16 04:15:19;;;;;;;18.10;9.17;;;15.60;99.90;;;;;;5000959;28;20235;-60
2021/09/16 04:17:45;;;;;;;14.63;8.80;;;15.60;99.90;;;;;;5001901;28;20196;-59
2021/09/16 04:20:11;;;;;;;14.37;9.60;;;15.60;99.90;;;;;;5001596;28;20227;-61
2021/09/16 04:22:37;;;;;;;12.83;8.93;;;15.60;99.90;;;;;;5002567;28;20204;-60
2021/09/16 04:25:03;;;;;;;16.83;9.40;;;15.60;99.90;;;;;;5006364;28;20585;-58
2021/09/16 04:27:29;;;;;;;13.10;8.63;;;15.60;99.90;;;;;;5002045;28;20198;-61
2021/09/16 04:29:54;;;;;;;12.80;8.93;;;15.60;99.90;;;;;;4985607;28;20447;-57
2021/09/16 04:32:20;;;;;;;12.40;8.70;;;15.60;99.90;;;;;;5005806;28;20215;-58
2021/09/16 04:34:47;;;;;;;13.43;8.10;;;15.60;99.90;;;;;;5001392;28;20703;-56
2021/09/16 04:37:12;;;;;;;9.80;7.30;;;15.60;99.90;;;;;;5003507;28;20173;-57
2021/09/16 04:39:38;;;;;;;11.67;8.03;;;15.60;99.90;;;;;;5001453;28;20549;-57
2021/09/16 04:42:05;;;;;;;11.63;8.10;;;15.60;99.90;;;;;;5007057;28;20200;-58
2021/09/16 04:44:32;;;;;;;9.10;7.13;;;15.60;99.90;;;;;;5001392;28;20182;-59
2021/09/16 04:46:57;;;;;;;16.60;8.20;;;15.60;99.90;;;;;;5006422;28;20447;-57
2021/09/16 04:49:23;;;;;;;11.77;8.00;;;15.50;99.90;;;;;;5004977;28;20513;-60
2021/09/16 04:51:49;;;;;;;12.00;7.57;;;15.50;99.90;;;;;;5006268;28;20187;-60
2021/09/16 04:54:15;;;;;;;11.87;7.87;;;15.50;99.90;;;;;;4978145;28;20216;-60
2021/09/16 04:56:40;;;;;;;9.90;7.40;;;15.50;99.90;;;;;;5009076;28;20176;-61
2021/09/16 04:59:06;;;;;;;8.67;6.93;;;15.50;99.90;;;;;;5003807;28;20183;-62
2021/09/16 05:01:32;;;;;;;10.90;7.57;;;15.50;99.90;;;;;;5009934;28;20168;-61
2021/09/16 05:03:57;;;;;;;15.27;6.90;;;15.50;99.90;;;;;;5009467;28;20227;-60
2021/09/16 05:06:23;;;;;;;11.00;7.20;;;15.50;99.90;;;;;;5003493;28;20219;-59
2021/09/16 05:08:49;;;;;;;13.47;8.40;;;15.60;99.90;;;;;;5007757;28;20180;-61
2021/09/16 05:11:14;;;;;;;13.03;7.40;;;15.60;99.90;;;;;;5002709;28;20647;-60
2021/09/16 05:13:40;;;;;;;10.13;6.80;;;15.50;99.90;;;;;;5010940;28;20724;-63
2021/09/16 05:16:06;;;;;;;10.37;7.43;;;15.60;99.90;;;;;;4992403;28;20195;-60
2021/09/16 05:18:31;;;;;;;14.27;7.50;;;15.50;99.90;;;;;;5010142;28;20256;-62
2021/09/16 05:20:57;;;;;;;12.57;7.90;;;15.50;99.90;;;;;;5008922;28;20220;-60
2021/09/16 05:23:23;;;;;;;13.77;8.00;;;15.50;99.90;;;;;;4991028;28;20204;-61
2021/09/16 05:25:49;;;;;;;16.60;8.00;;;15.50;99.90;;;;;;5000797;28;20431;-61
2021/09/16 05:28:15;;;;;;;12.53;7.97;;;15.50;99.90;;;;;;5007022;28;20192;-60
2021/09/16 05:30:40;;;;;;;16.20;7.90;;;15.60;99.90;;;;;;5007488;28;20272;-61
2021/09/16 05:33:12;;;;;;;10.20;7.53;;;15.60;99.90;;;;;;5000431;28;20254;-63
2021/09/16 05:35:38;;;;;;;13.87;8.23;;;15.60;99.90;;;;;;5009738;28;20291;-59
2021/09/16 05:38:05;;;;;;;14.20;8.93;;;15.60;99.90;;;;;;5007999;28;20450;-61
2021/09/16 05:40:31;;;;;;;18.13;8.93;;;15.60;99.90;;;;;;5009587;28;20431;-61
2021/09/16 05:42:56;;;;;;;11.67;7.53;;;15.60;99.90;;;;;;4990519;28;20547;-60
2021/09/16 05:45:22;;;;;;;11.50;7.47;;;15.60;99.90;;;;;;4997725;28;20436;-61
2021/09/16 05:47:48;;;;;;;11.53;7.47;;;15.60;99.90;;;;;;5009842;28;20223;-59
2021/09/16 05:50:13;;;;;;;15.10;7.43;;;15.60;99.90;;;;;;5009505;28;20211;-60
2021/09/16 05:52:39;;;;;;;13.13;7.67;;;15.60;99.90;;;;;;4992704;28;20679;-60
2021/09/16 05:55:06;;;;;;;13.53;8.53;;;15.70;99.90;;;;;;4991677;28;20309;-63
2021/09/16 05:57:31;;;;;;;16.87;8.13;;;15.70;99.90;;;;;;5010047;28;20180;-60
2021/09/16 05:59:57;;;;;;;14.70;8.10;;;15.70;99.90;;;;;;5008660;28;20519;-61
2021/09/16 06:02:26;;;;;;;15.80;8.70;;;15.70;99.90;;;;;;5004644;28;20200;-61
2021/09/16 06:04:51;;;;;;;12.93;7.83;;;15.70;99.90;;;;;;5008733;28;20188;-62
2021/09/16 06:07:17;;;;;;;14.33;8.73;;;15.70;99.90;;;;;;5003293;28;20444;-61
2021/09/16 06:09:42;;;;;;;12.93;7.50;;;15.70;99.90;;;;;;4989317;28;20267;-61
2021/09/16 06:12:08;;;;;;;12.93;7.60;;;15.70;99.90;;;;;;5007687;28;20223;-61
2021/09/16 06:14:34;;;;;;;13.43;8.23;;;15.80;99.90;;;;;;4995885;28;20703;-60
2021/09/16 06:17:00;;;;;;;15.70;9.23;;;15.80;99.90;;;;;;5009800;28;20619;-61
2021/09/16 06:19:26;;;;;;;16.30;9.47;;;15.80;99.90;;;;;;5008672;28;20195;-61
2021/09/16 06:21:54;;;;;;;16.53;9.57;;;15.80;99.90;;;;;;5001535;28;20428;-61
2021/09/16 06:24:20;;;;;;;14.53;9.10;;;15.90;99.90;;;;;;5009096;28;20585;-60
2021/09/16 06:26:45;;;;;;;11.33;8.23;;;15.90;99.90;;;;;;4990243;28;20954;-60
2021/09/16 06:29:11;;;;;;;15.10;7.67;;;15.90;99.90;;;;;;4990647;28;20271;-61
2021/09/16 06:31:38;;;;;;;13.13;7.90;;;15.90;99.90;;;;;;5009485;28;20679;-61
2021/09/16 06:34:03;;;;;;;11.60;7.30;;;15.90;99.90;;;;;;5006233;28;20230;-61
2021/09/16 06:36:29;;;;;;;11.03;7.40;;;15.90;99.90;;;;;;5008374;28;20920;-60
2021/09/16 06:38:55;;;;;;;10.13;7.30;;;16.00;99.90;;;;;;5007268;28;20668;-61
2021/09/16 06:41:20;;;;;;;10.77;7.63;;;16.00;99.90;;;;;;5009207;28;20190;-60
2021/09/16 06:43:46;;;;;;;11.80;7.90;;;16.00;99.90;;;;;;5001469;28;20232;-61
2021/09/16 06:46:12;;;;;;;9.80;7.20;;;16.00;99.90;;;;;;4996844;28;20188;-62
2021/09/16 06:48:37;;;;;;;11.30;7.63;;;16.10;99.90;;;;;;5008984;28;20176;-61
2021/09/16 06:51:03;;;;;;;12.83;7.90;;;16.10;99.90;;;;;;5008172;28;20220;-62
2021/09/16 06:53:29;;;;;;;11.53;7.70;;;16.10;99.90;;;;;;5007907;28;20642;-60
2021/09/16 06:55:54;;;;;;;12.13;7.33;;;16.10;99.90;;;;;;5008879;28;20713;-60
2021/09/16 06:58:20;;;;;;;11.07;7.73;;;16.10;99.90;;;;;;5008392;28;20812;-60
2021/09/16 07:00:46;;;;;;;13.27;9.97;;;16.10;99.90;;;;;;5003004;28;20412;-61
2021/09/16 07:03:12;;;;;;;13.70;9.37;;;16.20;99.90;;;;;;5007678;28;20451;-60
2021/09/16 07:05:38;;;;;;;16.00;10.87;;;16.20;99.90;;;;;;5008234;28;20195;-62
2021/09/16 07:08:04;;;;;;;13.00;9.23;;;16.30;99.90;;;;;;5006764;28;20192;-61
2021/09/16 07:10:29;;;;;;;17.80;9.50;;;16.30;99.90;;;;;;5008334;28;20250;-61
2021/09/16 07:12:55;;;;;;;15.60;8.37;;;16.40;99.90;;;;;;5008985;28;20539;-61
2021/09/16 07:15:21;;;;;;;12.20;8.47;;;16.40;99.90;;;;;;5007636;28;20645;-61
2021/09/16 07:17:47;;;;;;;15.40;9.90;;;16.50;99.90;;;;;;5008955;28;20172;-59
2021/09/16 07:20:12;;;;;;;14.97;8.20;;;16.50;99.90;;;;;;4977252;28;20167;-61
2021/09/16 07:22:38;;;;;;;14.60;9.73;;;16.60;99.90;;;;;;4996702;28;20782;-61
2021/09/16 07:25:06;;;;;;;13.47;8.33;;;16.70;99.90;;;;;;5008878;28;20424;-59
2021/09/16 07:27:32;;;;;;;14.17;9.20;;;16.80;99.90;;;;;;5006926;28;20457;-60
2021/09/16 07:29:58;;;;;;;12.93;8.93;;;16.90;99.90;;;;;;5006488;28;21019;-60
2021/09/16 07:32:23;;;;;;;11.23;7.27;;;17.00;99.90;;;;;;5005563;28;20685;-61
2021/09/16 07:34:49;;;;;;;11.30;6.13;;;17.00;99.90;;;;;;4989303;28;20486;-61
2021/09/16 07:37:16;;;;;;;8.53;5.60;;;17.10;99.90;;;;;;5007177;28;20211;-60
2021/09/16 07:39:41;;;;;;;7.10;5.60;;;17.10;99.90;;;;;;5005698;28;20592;-62
2021/09/16 07:42:07;;;;;;;6.87;5.07;;;17.20;99.90;;;;;;5006516;28;20451;-61
2021/09/16 07:44:33;;;;;;;6.67;4.97;;;17.20;99.90;;;;;;5006354;28;20192;-61
2021/09/16 07:46:59;;;;;;;5.73;4.63;;;17.30;99.90;;;;;;5006291;28;20195;-61
2021/09/16 07:49:24;;;;;;;5.30;3.90;;;17.30;99.90;;;;;;4989014;28;20996;-61
2021/09/16 07:51:50;;;;;;;7.30;4.03;;;17.40;99.90;;;;;;5007153;28;20207;-59
2021/09/16 07:54:16;;;;;;;5.67;3.83;;;17.40;99.90;;;;;;5007268;28;20184;-61
2021/09/16 07:56:42;;;;;;;5.20;3.27;;;17.40;99.90;;;;;;5009110;28;20196;-61
2021/09/16 07:59:08;;;;;;;5.87;3.83;;;17.40;99.90;;;;;;5009357;28;20173;-61
2021/09/16 08:01:36;;;;;;;5.20;3.50;;;17.40;99.90;;;;;;5010346;28;20177;-62
2021/09/16 08:04:03;;;;;;;5.80;3.97;;;17.50;99.90;;;;;;5010772;28;20451;-60
2021/09/16 08:06:29;;;;;;;5.20;3.60;;;17.50;99.90;;;;;;5011635;28;20498;-61
2021/09/16 08:08:54;;;;;;;4.90;4.00;;;17.50;99.90;;;;;;5010756;28;20523;-62
2021/09/16 08:11:20;;;;;;;7.80;4.27;;;17.50;99.90;;;;;;5003809;28;20645;-61
2021/09/16 08:13:46;;;;;;;6.23;4.73;;;17.50;99.90;;;;;;5013453;28;20204;-61
2021/09/16 08:16:12;;;;;;;6.80;4.77;;;17.60;99.90;;;;;;5010213;28;20252;-60
2021/09/16 08:18:37;;;;;;;6.37;4.77;;;17.70;99.90;;;;;;5010050;28;20187;-61
2021/09/16 08:21:03;;;;;;;7.50;4.80;;;17.80;99.90;;;;;;5006141;28;20172;-60
2021/09/16 08:23:30;;;;;;;6.60;4.80;;;17.90;99.90;;;;;;5009804;28;20251;-61
2021/09/16 08:25:55;;;;;;;4.83;4.33;;;18.00;99.90;;;;;;5011455;28;20858;-60
2021/09/16 08:28:21;;;;;;;5.30;4.43;;;18.00;99.90;;;;;;5005372;28;20436;-61
2021/09/16 08:30:47;;;;;;;7.17;4.50;;;18.10;99.90;;;;;;5009285;28;20176;-61
2021/09/16 08:33:14;;;;;;;4.90;4.40;;;18.10;99.90;;;;;;5010514;28;20266;-62
2021/09/16 08:35:40;;;;;;;5.00;4.13;;;18.20;99.90;;;;;;5007721;28;20646;-61
2021/09/16 08:38:05;;;;;;;5.43;4.60;;;18.30;99.90;;;;;;5011568;28;20466;-61
2021/09/16 08:40:31;;;;;;;6.90;4.37;;;18.40;99.90;;;;;;5010712;28;20533;-62
2021/09/16 08:42:57;;;;;;;6.30;3.70;;;18.50;99.90;;;;;;5008859;28;20192;-62
2021/09/16 08:45:23;;;;;;;5.40;3.77;;;18.50;99.90;;;;;;5007813;28;20659;-61
2021/09/16 08:47:51;;;;;;;5.63;3.80;;;18.60;99.90;;;;;;5009690;28;20980;-61
2021/09/16 08:50:19;;;;;;;5.50;3.47;;;18.70;99.90;;;;;;5010028;28;20499;-63
2021/09/16 08:52:47;;;;;;;5.60;3.80;;;18.80;99.90;;;;;;5008426;28;20482;-60
2021/09/16 08:55:14;;;;;;;5.93;3.50;;;18.90;99.90;;;;;;5008803;28;20494;-61
2021/09/16 08:57:43;;;;;;;7.40;3.67;;;18.90;99.90;;;;;;5011094;28;20792;-62
2021/09/16 09:00:14;;;;;;;4.17;2.70;;;18.90;99.90;;;;;;5011331;28;20426;-59
2021/09/16 09:02:40;;;;;;;2.93;2.73;;;18.90;99.90;;;;;;5010364;28;20453;-61
2021/09/16 09:05:08;;;;;;;3.50;2.30;;;18.90;99.90;;;;;;5005253;28;20436;-60
2021/09/16 09:07:49;;;;;;;5.20;2.50;;;18.90;99.90;;;;;;5007943;28;20183;-60
2021/09/16 09:10:42;;;;;;;3.30;2.40;;;18.90;99.90;;;;;;5006541;28;20898;-60
2021/09/16 09:13:20;;;;;;;2.50;2.03;;;18.90;99.90;;;;;;5003760;28;20549;-60
2021/09/16 09:15:48;;;;;;;2.10;1.90;;;18.90;99.90;;;;;;5009544;28;20737;-62
2021/09/16 09:18:17;;;;;;;3.47;2.03;;;18.80;99.90;;;;;;5010120;28;20752;-60
2021/09/16 09:20:58;;;;;;;2.53;2.33;;;18.80;99.90;;;;;;4991374;28;21027;-60
2021/09/16 09:23:28;;;;;;;2.20;2.10;;;18.80;99.90;;;;;;5010784;28;20489;-61
2021/09/16 09:25:54;;;;;;;3.73;2.10;;;18.80;99.90;;;;;;5009399;28;20625;-62
2021/09/16 09:28:32;;;;;;;2.63;2.17;;;18.70;99.90;;;;;;5007365;28;20427;-61
2021/09/16 09:31:11;;;;;;;3.70;2.67;;;18.80;99.90;;;;;;5001301;28;20461;-61
2021/09/16 09:33:37;;;;;;;4.23;2.30;;;18.80;99.90;;;;;;5009757;28;20473;-62
2021/09/16 09:36:18;;;;;;;2.40;2.20;;;18.80;99.90;;;;;;5009592;28;20527;-61
2021/09/16 09:39:02;;;;;;;2.00;1.80;;;18.80;99.90;;;;;;5008905;28;20231;-60
2021/09/16 09:41:33;;;;;;;1.33;1.00;;;18.90;99.90;;;;;;5005199;28;20514;-61
2021/09/16 09:44:11;;;;;;;3.40;1.07;;;18.90;99.90;;;;;;4991754;28;20814;-60
2021/09/16 09:46:43;;;;;;;0.80;0.60;;;18.80;99.90;;;;;;5008920;28;20510;-60
2021/09/16 09:49:14;;;;;;;1.03;0.93;;;18.70;99.90;;;;;;5003678;28;20420;-60
2021/09/16 09:51:44;;;;;;;0.60;0.60;;;18.60;99.90;;;;;;4999500;28;20426;-60
2021/09/16 09:54:32;;;;;;;0.60;0.60;;;18.60;99.90;;;;;;5006615;28;20459;-60
2021/09/16 09:57:16;;;;;;;0.60;0.60;;;18.40;99.90;;;;;;5010178;28;20425;-60
2021/09/16 10:00:00;;;;;;;0.60;0.60;;;18.30;99.90;;;;;;5005587;28;20419;-60
2021/09/16 10:02:29;;;;;;;0.67;0.67;;;18.30;99.90;;;;;;5008961;28;20537;-61
2021/09/16 10:04:55;;;;;;;0.80;0.73;;;18.10;99.90;;;;;;5007485;28;20458;-60
2021/09/16 10:07:33;;;;;;;0.60;0.60;;;18.00;99.90;;;;;;5004914;28;20431;-59
2021/09/16 10:10:02;;;;;;;1.87;0.63;;;18.00;99.90;;;;;;4994211;28;20472;-60
2021/09/16 10:12:28;;;;;;;0.87;0.60;;;18.00;99.90;;;;;;5004606;28;20501;-60
2021/09/16 10:14:54;;;;;;;0.80;0.60;;;17.90;99.90;;;;;;5000845;28;20459;-59
2021/09/16 10:17:20;;;;;;;0.70;0.70;;;17.90;99.90;;;;;;5008549;28;20459;-60
2021/09/16 10:19:46;;;;;;;1.00;0.70;;;17.80;99.90;;;;;;4993909;28;20839;-60
2021/09/16 10:22:15;;;;;;;2.47;0.70;;;17.80;99.90;;;;;;5003056;28;20187;-59
2021/09/16 10:24:42;;;;;;;2.10;0.70;;;17.80;99.90;;;;;;4972968;28;20180;-60
2021/09/16 10:27:32;;;;;;;0.73;0.70;;;17.80;99.90;;;;;;5000898;28;20964;-59
2021/09/16 10:29:59;;;;;;;1.07;0.60;;;17.70;99.90;;;;;;5008317;28;20427;-59
2021/09/16 10:32:28;;;;;;;3.27;0.60;;;17.70;99.90;;;;;;5000174;28;21074;-59
2021/09/16 10:34:59;;;;;;;3.90;0.70;;;17.60;99.90;;;;;;4990221;28;20457;-60
2021/09/16 10:37:34;;;;;;;0.80;0.70;;;17.60;99.90;;;;;;4998355;28;20427;-59
2021/09/16 10:40:22;;;;;;;2.10;0.90;;;17.50;99.90;;;;;;4994142;28;20431;-59
2021/09/16 10:43:08;;;;;;;1.10;0.90;;;17.40;99.90;;;;;;5008032;28;21005;-60
2021/09/16 10:45:37;;;;;;;2.40;0.90;;;17.40;99.90;;;;;;4985393;28;20462;-60
2021/09/16 10:48:15;;;;;;;2.00;0.80;;;17.30;99.90;;;;;;4998090;28;20424;-60
2021/09/16 10:50:53;;;;;;;5.07;1.07;;;17.30;99.90;;;;;;4996847;28;20436;-59
2021/09/16 10:53:35;;;;;;;7.53;0.90;;;17.20;99.90;;;;;;4995809;28;21012;-59
2021/09/16 10:56:05;;;;;;;1.13;0.80;;;17.20;99.90;;;;;;4988909;28;20518;-60
2021/09/16 10:58:31;;;;;;;0.70;0.70;;;17.10;99.90;;;;;;4999869;28;20424;-59
2021/09/16 11:00:57;;;;;;;1.23;0.77;;;17.10;99.90;;;;;;5004186;28;20489;-59
2021/09/16 11:03:24;;;;;;;1.17;1.10;;;17.10;99.90;;;;;;4985746;28;20455;-59
2021/09/16 11:05:57;;;;;;;1.70;1.60;;;17.10;99.90;;;;;;4999669;28;20530;-59
2021/09/16 11:08:59;;;;;;;2.23;1.00;;;17.10;99.90;;;;;;4978140;28;20861;-59
2021/09/16 11:11:45;;;;;;;2.23;1.20;;;17.10;99.90;;;;;;4982811;28;20442;-60
2021/09/16 11:14:28;;;;;;;1.47;1.20;;;17.10;99.90;;;;;;4991120;28;20595;-60
2021/09/16 11:16:54;;;;;;;2.30;1.10;;;17.10;99.90;;;;;;4999293;28;20439;-60
2021/09/16 11:19:20;;;;;;;2.30;1.30;;;17.10;99.90;;;;;;4987122;28;20949;-60
2021/09/16 11:22:08;;;;;;;2.97;1.90;;;17.10;99.90;;;;;;4984132;28;20431;-59
2021/09/16 11:24:40;;;;;;;5.00;1.70;;;17.20;99.90;;;;;;4972907;28;20452;-59
2021/09/16 11:27:07;;;;;;;6.23;2.20;;;17.30;99.90;;;;;;4984452;28;20981;-60
2021/09/16 11:29:45;;;;;;;2.10;1.90;;;17.40;99.90;;;;;;4984067;28;20455;-60
2021/09/16 11:32:13;;;;;;;3.50;2.00;;;17.40;99.90;;;;;;4988471;28;21111;-60
2021/09/16 11:34:56;;;;;;;3.37;2.17;;;17.50;99.90;;;;;;4976444;28;20733;-60
2021/09/16 11:37:30;;;;;;;2.43;2.00;;;17.70;99.90;;;;;;5004418;28;20419;-62
2021/09/16 11:40:14;;;;;;;1.93;1.77;;;17.90;99.90;;;;;;4992301;28;20500;-60
2021/09/16 11:42:43;;;;;;;2.93;2.40;;;18.10;99.90;;;;;;5015012;28;20567;-60
2021/09/16 11:45:14;;;;;;;4.20;2.30;;;18.20;99.90;;;;;;4988235;28;20443;-58
2021/09/16 11:47:42;;;;;;;4.70;2.60;;;18.30;99.90;;;;;;4993930;28;20567;-60
2021/09/16 11:50:21;;;;;;;3.83;2.40;;;18.30;99.90;;;;;;4980926;28;20494;-60
2021/09/16 11:52:47;;;;;;;3.17;2.87;;;18.40;99.90;;;;;;4989315;28;20827;-59
2021/09/16 11:55:15;;;;;;;3.10;2.67;;;18.40;99.90;;;;;;4993873;28;21007;-58
2021/09/16 11:58:01;;;;;;;3.97;2.90;;;18.40;99.90;;;;;;5011869;28;20451;-59
2021/09/16 12:00:49;;;;;;;4.10;3.20;;;18.40;99.90;;;;;;4991811;28;21002;-59
2021/09/16 12:03:21;;;;;;;3.23;2.93;;;18.50;99.90;;;;;;4991598;28;20454;-59
2021/09/16 12:05:52;;;;;;;3.10;2.60;;;18.50;99.90;;;;;;5010839;28;20431;-59
2021/09/16 12:08:39;;;;;;;4.23;2.60;;;18.40;99.90;;;;;;5003304;28;20757;-58
2021/09/16 12:11:13;;;;;;;5.70;3.23;;;18.30;99.90;;;;;;5005371;28;20430;-59
2021/09/16 12:13:52;;;;;;;4.20;2.50;;;18.20;99.90;;;;;;5000837;28;20467;-59
2021/09/16 12:16:31;;;;;;;2.97;2.67;;;18.00;99.90;;;;;;5004278;28;20431;-59
2021/09/16 12:19:11;;;;;;;3.27;2.97;;;18.00;99.90;;;;;;5003439;28;20450;-58
2021/09/16 12:21:39;;;;;;;4.00;3.43;;;18.00;99.90;;;;;;5010512;28;20439;-58
2021/09/16 12:24:13;;;;;;;5.20;3.57;;;18.00;99.90;;;;;;5011308;28;20430;-58
2021/09/16 12:26:48;;;;;;;3.57;3.27;;;18.00;99.90;;;;;;5008292;28;20523;-58
2021/09/16 12:29:24;;;;;;;4.00;2.77;;;18.00;99.90;;;;;;4984092;28;20931;-59
2021/09/16 12:32:01;;;;;;;4.30;3.43;;;18.00;99.90;;;;;;4976422;28;20441;-59
2021/09/16 12:34:35;;;;;;;3.60;3.10;;;18.00;99.90;;;;;;4989369;28;20470;-59
2021/09/16 12:37:14;;;;;;;3.93;2.63;;;18.00;99.90;;;;;;5007678;28;20493;-59
2021/09/16 12:39:52;;;;;;;4.90;3.67;;;18.00;99.90;;;;;;4992861;28;20431;-59
2021/09/16 12:42:35;;;;;;;4.20;3.23;;;18.00;99.90;;;;;;5014105;28;20726;-59
2021/09/16 12:45:13;;;;;;;3.80;3.30;;;18.10;99.90;;;;;;4984363;28;20446;-59
2021/09/16 12:47:51;;;;;;;4.20;3.47;;;18.10;99.90;;;;;;5010930;28;21007;-59
2021/09/16 12:50:19;;;;;;;5.03;3.43;;;18.10;99.90;;;;;;5011970;28;20431;-61
2021/09/16 12:52:45;;;;;;;3.83;3.40;;;18.30;99.90;;;;;;5009530;28;21019;-59
2021/09/16 12:55:12;;;;;;;3.40;3.10;;;18.40;99.90;;;;;;4993412;28;20459;-59
2021/09/16 12:57:42;;;;;;;5.33;3.83;;;18.50;99.90;;;;;;4989263;28;20432;-59
2021/09/16 13:00:10;;;;;;;8.90;3.57;;;18.80;99.90;;;;;;5005195;28;20432;-59